Time;durP1;ratioP1;P1;durP2;ratioP2;P2;SDS_P1;SDS_P2;PMS_P1;PMS_P2;Temp;Humidity;BMP_temperature;BMP_pressure;BME280_temperature;BME280_humidity;BME280_pressure;Samples;Min_cycle;Max_cycle;Signal;HPM_P1;HPM_P2
2023/06/10 00:01:46;;;;;;;6.70;2.92;;;;;;;18.51;85.01;101064.19;5046036;28;20107;-80
2023/06/10 00:04:18;;;;;;;4.70;2.97;;;;;;;18.45;85.20;101069.44;5046085;28;20576;-75
2023/06/10 00:06:48;;;;;;;7.05;3.55;;;;;;;18.39;84.04;101065.03;5046719;28;20045;-71
2023/06/10 00:09:18;;;;;;;5.43;3.05;;;;;;;18.35;84.48;101063.31;5033852;28;20144;-74
2023/06/10 00:11:46;;;;;;;5.70;3.08;;;;;;;18.34;85.09;101061.53;5036545;28;20075;-73
2023/06/10 00:14:19;;;;;;;6.43;2.83;;;;;;;18.33;86.17;101060.69;5047522;28;20041;-74
2023/06/10 00:16:48;;;;;;;6.35;3.13;;;;;;;18.38;86.23;101068.56;5044745;28;20457;-73
2023/06/10 00:19:18;;;;;;;5.47;2.85;;;;;;;18.18;83.24;101065.88;5043761;28;20053;-72
2023/06/10 00:21:47;;;;;;;6.38;3.00;;;;;;;18.10;85.11;101062.38;5045785;28;20566;-73
2023/06/10 00:24:15;;;;;;;4.38;2.50;;;;;;;17.99;85.67;101059.69;5044604;28;20720;-74
2023/06/10 00:26:44;;;;;;;5.93;2.92;;;;;;;17.85;86.02;101069.25;5047079;28;20065;-74
2023/06/10 00:29:13;;;;;;;4.97;2.83;;;;;;;17.69;87.69;101063.03;5044066;28;20515;-76
2023/06/10 00:31:43;;;;;;;6.35;2.65;;;;;;;17.64;88.17;101067.34;5046717;28;20142;-74
2023/06/10 00:34:12;;;;;;;7.75;2.90;;;;;;;17.63;87.83;101066.47;5048352;28;20110;-73
2023/06/10 00:36:40;;;;;;;9.73;2.97;;;;;;;17.65;88.56;101066.50;5050187;28;20123;-72
2023/06/10 00:39:09;;;;;;;9.18;2.88;;;;;;;17.61;87.90;101067.34;5037743;28;20119;-74
2023/06/10 00:41:37;;;;;;;6.20;2.90;;;;;;;17.61;88.74;101068.19;5047200;28;20147;-75
2023/06/10 00:44:06;;;;;;;6.82;2.75;;;;;;;17.61;87.38;101068.19;5046907;28;20049;-75
2023/06/10 00:46:37;;;;;;;6.95;3.05;;;;;;;17.61;88.62;101072.56;5042786;28;20090;-75
2023/06/10 00:49:16;;;;;;;5.72;2.90;;;;;;;17.53;88.69;101075.16;5043487;28;20063;-73
2023/06/10 00:51:45;;;;;;;7.90;2.92;;;;;;;17.46;89.92;101060.28;5034490;28;20060;-74
2023/06/10 00:54:14;;;;;;;5.28;2.83;;;;;;;17.48;90.17;101067.28;5046893;28;20044;-74
2023/06/10 00:56:43;;;;;;;5.90;2.60;;;;;;;17.49;89.11;101070.75;5042428;28;20057;-76
2023/06/10 00:59:14;;;;;;;4.15;2.13;;;;;;;17.46;88.74;101068.13;5048593;28;20525;-75
2023/06/10 01:01:46;;;;;;;6.30;2.30;;;;;;;17.41;86.10;101077.66;5041492;28;20111;-76
2023/06/10 01:04:17;;;;;;;4.88;2.35;;;;;;;17.36;87.13;101078.53;5043523;28;20096;-74
2023/06/10 01:06:57;;;;;;;6.28;2.13;;;;;;;17.32;86.49;101074.13;5042808;28;20115;-76
2023/06/10 01:09:40;;;;;;;5.18;1.98;;;;;;;17.31;86.30;101075.00;5048617;28;20143;-76
2023/06/10 01:12:27;;;;;;;3.58;1.85;;;;;;;17.28;85.83;101068.88;5037815;28;20079;-75
2023/06/10 01:14:57;;;;;;;4.05;1.88;;;;;;;17.25;86.80;101071.44;5048754;28;20103;-75
2023/06/10 01:17:30;;;;;;;5.93;2.53;;;;;;;17.23;86.91;101071.47;5047905;28;20532;-73
2023/06/10 01:20:02;;;;;;;3.58;2.28;;;;;;;17.20;86.15;101074.03;5046186;28;20522;-76
2023/06/10 01:22:36;;;;;;;3.35;2.00;;;;;;;17.20;85.58;101075.78;5046685;28;20057;-74
2023/06/10 01:25:07;;;;;;;5.45;2.03;;;;;;;17.18;86.56;101073.19;5043460;28;20102;-76
2023/06/10 01:27:40;;;;;;;4.20;1.65;;;;;;;17.12;86.24;101075.72;5046029;28;20140;-76
2023/06/10 01:30:15;;;;;;;2.75;1.45;;;;;;;17.14;87.23;101082.72;5047063;28;20140;-76
2023/06/10 01:32:47;;;;;;;3.60;1.55;;;;;;;17.16;86.74;101080.13;5047231;28;20413;-76
2023/06/10 01:35:17;;;;;;;4.22;1.65;;;;;;;17.18;87.40;101083.63;5048743;28;20576;-75
2023/06/10 01:37:49;;;;;;;3.67;1.98;;;;;;;17.21;86.70;101080.16;5042357;28;20053;-75
2023/06/10 01:40:18;;;;;;;8.20;1.75;;;;;;;17.23;87.69;101087.16;5042047;28;20048;-77
2023/06/10 01:42:47;;;;;;;3.15;1.55;;;;;;;17.22;87.53;101074.94;5047526;28;20107;-75
2023/06/10 01:45:17;;;;;;;4.07;1.55;;;;;;;17.22;87.61;101084.50;5047637;28;20094;-75
2023/06/10 01:47:46;;;;;;;2.30;1.23;;;;;;;17.21;85.69;101083.66;5040737;28;20053;-75
2023/06/10 01:50:16;;;;;;;3.13;1.38;;;;;;;17.19;84.69;101089.72;5043883;28;20045;-75
2023/06/10 01:52:48;;;;;;;2.10;1.13;;;;;;;17.16;83.84;101093.22;5044851;28;20175;-73
2023/06/10 01:55:17;;;;;;;2.28;1.13;;;;;;;17.10;83.26;101087.91;5046380;28;20134;-74
2023/06/10 01:57:46;;;;;;;1.90;1.00;;;;;;;17.06;83.78;101088.75;5045865;28;20052;-74
2023/06/10 02:00:16;;;;;;;4.07;1.10;;;;;;;17.05;83.39;101092.25;5044968;28;20045;-74
2023/06/10 02:02:45;;;;;;;3.80;1.40;;;;;;;17.08;84.36;101097.47;5045741;28;20053;-74
2023/06/10 02:05:16;;;;;;;3.42;1.40;;;;;;;17.11;85.49;101087.03;5047494;28;20159;-73
2023/06/10 02:07:46;;;;;;;1.67;1.30;;;;;;;17.12;83.93;101094.03;5049062;28;20053;-72
2023/06/10 02:10:15;;;;;;;1.45;0.90;;;;;;;17.13;84.71;101094.06;5046991;28;20594;-73
2023/06/10 02:12:43;;;;;;;6.05;1.40;;;;;;;17.13;86.41;101093.16;5046522;28;20839;-71
2023/06/10 02:15:12;;;;;;;4.53;1.20;;;;;;;17.14;85.45;101093.19;5046377;28;20044;-74
2023/06/10 02:17:41;;;;;;;2.63;1.35;;;;;;;17.15;84.83;101094.06;5048344;28;21374;-70
2023/06/10 02:20:10;;;;;;;2.90;1.50;;;;;;;17.14;84.42;101089.69;5047410;28;20042;-70
2023/06/10 02:22:39;;;;;;;4.78;1.45;;;;;;;17.14;83.29;101087.09;5048123;28;20138;-70
2023/06/10 02:25:10;;;;;;;1.63;0.90;;;;;;;17.15;83.63;101088.81;5047781;28;20177;-70
2023/06/10 02:27:42;;;;;;;2.05;1.27;;;;;;;17.15;83.72;101094.06;5040903;28;20059;-70
2023/06/10 02:30:13;;;;;;;2.17;1.33;;;;;;;17.14;83.45;101093.19;5045054;28;20127;-71
2023/06/10 02:32:47;;;;;;;5.22;1.40;;;;;;;17.13;82.89;101095.78;5043540;28;20102;-71
2023/06/10 02:35:17;;;;;;;2.70;1.15;;;;;;;17.14;82.57;101092.31;5045104;28;20068;-71
2023/06/10 02:37:50;;;;;;;2.65;1.45;;;;;;;17.14;83.72;101087.09;5046195;28;20044;-71
2023/06/10 02:40:21;;;;;;;2.03;1.02;;;;;;;17.09;83.99;101083.56;5047901;28;20049;-73
2023/06/10 02:42:50;;;;;;;2.45;1.35;;;;;;;17.08;83.37;101084.41;5044759;28;20087;-72
2023/06/10 02:45:32;;;;;;;5.63;1.00;;;;;;;17.09;83.63;101080.94;5046942;28;20053;-71
2023/06/10 02:48:01;;;;;;;1.55;1.10;;;;;;;17.09;83.05;101083.56;5044895;28;20120;-71
2023/06/10 02:50:33;;;;;;;2.15;1.20;;;;;;;17.09;83.58;101088.78;5044990;28;20045;-71
2023/06/10 02:53:16;;;;;;;2.00;1.10;;;;;;;17.09;83.50;101094.03;5046141;28;20053;-72
2023/06/10 02:55:51;;;;;;;2.60;1.30;;;;;;;17.08;84.87;101097.47;5046271;28;20057;-72
2023/06/10 02:58:37;;;;;;;1.75;1.42;;;;;;;17.05;85.71;101094.84;5042658;28;20134;-72
2023/06/10 03:01:10;;;;;;;3.40;1.77;;;;;;;16.97;85.64;101092.16;5039656;28;20158;-73
2023/06/10 03:03:40;;;;;;;1.95;1.42;;;;;;;16.92;86.36;101093.84;5027040;28;20128;-71
2023/06/10 03:06:13;;;;;;;4.72;1.67;;;;;;;16.89;85.98;101097.31;5045037;28;20094;-72
2023/06/10 03:08:47;;;;;;;3.33;1.83;;;;;;;16.87;85.95;101092.94;5039333;28;20065;-71
2023/06/10 03:11:19;;;;;;;5.05;2.00;;;;;;;16.86;86.38;101092.09;5042198;28;20056;-69
2023/06/10 03:13:47;;;;;;;2.27;1.80;;;;;;;16.88;86.17;101095.59;5046172;28;20049;-70
2023/06/10 03:16:16;;;;;;;2.60;1.58;;;;;;;16.89;86.15;101102.56;5046854;28;20082;-70
2023/06/10 03:18:44;;;;;;;3.45;1.60;;;;;;;16.88;85.43;101094.69;5047618;28;20608;-70
2023/06/10 03:21:13;;;;;;;3.38;1.90;;;;;;;16.86;85.85;101099.91;5048600;28;20045;-70
2023/06/10 03:23:42;;;;;;;4.32;2.03;;;;;;;16.78;86.41;101088.47;5047184;28;20053;-70
2023/06/10 03:26:12;;;;;;;2.10;1.60;;;;;;;16.72;88.18;101099.75;5045462;28;20049;-69
2023/06/10 03:28:42;;;;;;;5.05;2.00;;;;;;;16.70;87.07;101092.78;5051083;28;20076;-70
2023/06/10 03:31:11;;;;;;;4.57;2.00;;;;;;;16.66;87.95;101094.47;5039859;28;20088;-70
2023/06/10 03:33:40;;;;;;;4.82;2.10;;;;;;;16.64;88.76;101093.56;5042045;28;20059;-70
2023/06/10 03:36:09;;;;;;;2.42;1.55;;;;;;;16.65;87.55;101099.66;5042979;28;20045;-70
2023/06/10 03:38:38;;;;;;;2.40;1.52;;;;;;;16.64;88.77;101105.75;5034483;28;20065;-71
2023/06/10 03:41:06;;;;;;;2.42;1.50;;;;;;;16.63;87.84;101101.38;5043915;28;20051;-71
2023/06/10 03:43:35;;;;;;;4.45;1.92;;;;;;;16.62;87.76;101104.88;5045215;28;20291;-71
2023/06/10 03:46:05;;;;;;;3.80;1.60;;;;;;;16.62;88.49;101102.25;5044917;28;20059;-71
2023/06/10 03:48:34;;;;;;;2.75;1.80;;;;;;;16.60;88.79;101099.63;5040132;28;20104;-71
2023/06/10 03:51:03;;;;;;;2.70;1.50;;;;;;;16.60;89.37;101102.22;5043428;28;20061;-71
2023/06/10 03:53:31;;;;;;;2.58;1.45;;;;;;;16.61;89.87;101098.78;5043018;28;20075;-71
2023/06/10 03:56:00;;;;;;;6.07;1.65;;;;;;;16.65;89.33;101099.66;5044804;28;20052;-72
2023/06/10 03:58:29;;;;;;;3.47;1.45;;;;;;;16.65;88.96;101102.28;5037898;28;20037;-73
2023/06/10 04:01:00;;;;;;;3.33;1.77;;;;;;;16.64;89.40;101100.53;5037611;28;20056;-72
2023/06/10 04:03:31;;;;;;;4.50;1.93;;;;;;;16.64;89.38;101097.94;5043420;28;20055;-72
2023/06/10 04:06:00;;;;;;;2.97;1.33;;;;;;;16.66;89.31;101099.69;5030807;28;20042;-72
2023/06/10 04:08:28;;;;;;;2.60;1.45;;;;;;;16.67;89.70;101097.94;5045135;28;20045;-74
2023/06/10 04:10:57;;;;;;;2.50;1.85;;;;;;;16.67;89.93;101101.44;5047857;28;20041;-73
2023/06/10 04:13:26;;;;;;;3.10;1.50;;;;;;;16.67;88.99;101103.16;5049554;28;20049;-73
2023/06/10 04:15:54;;;;;;;2.88;1.83;;;;;;;16.66;88.34;101109.28;5043016;28;20167;-73
2023/06/10 04:18:23;;;;;;;5.03;1.55;;;;;;;16.68;88.22;101110.16;5042363;28;20053;-73
2023/06/10 04:20:53;;;;;;;2.08;1.52;;;;;;;16.67;88.01;101111.00;5045935;28;20049;-74
2023/06/10 04:23:22;;;;;;;3.35;1.55;;;;;;;16.67;87.93;101113.63;5047959;28;20053;-74
2023/06/10 04:25:50;;;;;;;2.65;1.42;;;;;;;16.64;87.18;101117.09;5049039;28;20114;-73
2023/06/10 04:28:19;;;;;;;1.63;1.10;;;;;;;16.63;87.41;101119.66;5046863;28;20049;-74
2023/06/10 04:30:55;;;;;;;2.78;1.63;;;;;;;16.63;88.05;101119.66;5045257;28;20052;-74
2023/06/10 04:33:24;;;;;;;2.72;1.60;;;;;;;16.54;87.61;101110.91;5049618;28;20418;-74
2023/06/10 04:35:54;;;;;;;3.10;1.33;;;;;;;16.61;87.48;101122.28;5046800;28;20114;-74
2023/06/10 04:38:23;;;;;;;2.35;1.40;;;;;;;16.61;87.16;101127.50;5044249;28;20679;-74
2023/06/10 04:40:51;;;;;;;3.88;1.80;;;;;;;16.60;87.48;101122.25;5045935;28;20056;-73
2023/06/10 04:43:20;;;;;;;2.90;1.40;;;;;;;16.61;87.50;101132.75;5044618;28;20049;-71
2023/06/10 04:45:48;;;;;;;2.70;1.10;;;;;;;16.61;87.82;101124.03;5049069;28;20499;-72
2023/06/10 04:48:17;;;;;;;2.88;1.40;;;;;;;16.58;87.92;101127.47;5044430;28;20040;-73
2023/06/10 04:50:45;;;;;;;2.25;1.40;;;;;;;16.57;88.40;101120.50;5047450;28;20057;-72
2023/06/10 04:53:16;;;;;;;4.80;1.65;;;;;;;16.52;88.31;101120.44;5046825;28;20577;-71
2023/06/10 04:55:45;;;;;;;5.70;1.52;;;;;;;16.52;88.09;101125.66;5046883;28;20053;-71
2023/06/10 04:58:13;;;;;;;2.13;1.33;;;;;;;16.48;88.07;101134.31;5045675;28;20056;-71
2023/06/10 05:00:42;;;;;;;1.80;1.10;;;;;;;16.48;88.35;101139.56;5047604;28;20037;-72
2023/06/10 05:03:11;;;;;;;6.05;1.90;;;;;;;16.45;88.80;101144.75;5047820;28;20491;-72
2023/06/10 05:05:39;;;;;;;2.35;1.67;;;;;;;16.39;88.71;101134.22;5046458;28;20045;-72
2023/06/10 05:08:08;;;;;;;4.63;2.03;;;;;;;16.38;89.15;101139.41;5034221;28;20561;-72
2023/06/10 05:10:38;;;;;;;3.60;1.55;;;;;;;16.39;89.67;101131.59;5033145;28;20282;-73
2023/06/10 05:13:07;;;;;;;1.98;1.45;;;;;;;16.39;91.50;101134.22;5043290;28;20052;-73
2023/06/10 05:15:35;;;;;;;1.45;1.20;;;;;;;16.36;90.91;101128.97;5042292;28;20080;-73
2023/06/10 05:18:04;;;;;;;2.65;1.42;;;;;;;16.30;89.81;101132.38;5044692;28;20052;-73
2023/06/10 05:20:32;;;;;;;3.55;1.80;;;;;;;16.32;90.76;101124.56;5047866;28;20131;-73
2023/06/10 05:23:01;;;;;;;3.80;1.63;;;;;;;16.35;90.30;101124.59;5044922;28;20041;-73
2023/06/10 05:25:38;;;;;;;3.25;1.92;;;;;;;16.32;89.92;101135.00;5047177;28;20067;-72
2023/06/10 05:28:09;;;;;;;4.85;1.77;;;;;;;16.30;90.60;101132.38;5046078;28;20049;-73
2023/06/10 05:30:38;;;;;;;5.25;1.67;;;;;;;16.29;90.18;101130.63;5046994;28;20068;-72
2023/06/10 05:33:07;;;;;;;2.67;1.50;;;;;;;16.29;92.13;101130.63;5046753;28;20087;-72
2023/06/10 05:35:35;;;;;;;3.33;1.45;;;;;;;16.30;92.05;101123.66;5045940;28;20123;-72
2023/06/10 05:38:04;;;;;;;3.15;1.77;;;;;;;16.30;91.83;101129.75;5050201;28;20097;-72
2023/06/10 05:40:33;;;;;;;3.95;1.95;;;;;;;16.30;91.72;101134.13;5048320;28;20532;-73
2023/06/10 05:43:01;;;;;;;2.78;1.30;;;;;;;16.30;91.29;101132.38;5047190;28;20581;-73
2023/06/10 05:45:31;;;;;;;4.07;2.17;;;;;;;16.32;91.10;101128.03;5046609;28;20052;-72
2023/06/10 05:48:00;;;;;;;2.65;1.48;;;;;;;16.31;90.90;101128.91;5044328;28;20049;-72
2023/06/10 05:50:29;;;;;;;5.28;1.80;;;;;;;16.31;91.28;101123.69;5047117;28;20060;-73
2023/06/10 05:52:57;;;;;;;2.58;1.15;;;;;;;16.32;91.20;101129.78;5048326;28;20041;-72
2023/06/10 05:55:26;;;;;;;2.97;1.73;;;;;;;16.35;91.58;101124.59;5044697;28;20727;-72
2023/06/10 05:58:01;;;;;;;2.92;1.45;;;;;;;16.34;91.31;101130.69;5049522;28;20053;-73
2023/06/10 06:00:31;;;;;;;2.60;1.55;;;;;;;16.35;92.34;101132.44;5050357;28;20120;-73
2023/06/10 06:03:00;;;;;;;3.13;1.83;;;;;;;16.35;91.70;101137.66;5050730;28;20540;-72
2023/06/10 06:05:34;;;;;;;2.45;1.63;;;;;;;16.35;92.41;101132.44;5048895;28;20045;-73
2023/06/10 06:08:03;;;;;;;5.40;1.77;;;;;;;16.33;92.30;101136.75;5048275;28;20044;-73
2023/06/10 06:10:32;;;;;;;4.22;1.73;;;;;;;16.33;91.98;101136.75;5060856;28;20059;-71
2023/06/10 06:13:00;;;;;;;2.35;1.60;;;;;;;16.33;91.30;101136.75;5062654;28;20587;-71
2023/06/10 06:15:31;;;;;;;5.05;1.80;;;;;;;16.32;91.52;101135.00;5048070;28;20586;-73
2023/06/10 06:17:59;;;;;;;3.17;1.50;;;;;;;16.30;91.07;101131.50;5046157;28;20101;-73
2023/06/10 06:20:28;;;;;;;2.63;1.80;;;;;;;16.30;91.06;101131.50;5047147;28;20129;-72
2023/06/10 06:22:56;;;;;;;4.13;1.70;;;;;;;16.27;90.76;101132.34;5045719;28;20498;-72
2023/06/10 06:25:25;;;;;;;2.88;1.80;;;;;;;16.25;90.89;101127.97;5045055;28;20049;-72
2023/06/10 06:27:54;;;;;;;2.42;1.63;;;;;;;16.23;90.04;101140.13;5048770;28;20049;-71
2023/06/10 06:30:23;;;;;;;3.25;1.65;;;;;;;16.20;90.36;101134.88;5046588;28;20061;-72
2023/06/10 06:32:53;;;;;;;4.07;1.88;;;;;;;16.18;90.99;101139.19;5053690;28;20486;-72
2023/06/10 06:35:22;;;;;;;5.40;2.20;;;;;;;16.17;90.39;101126.97;5046596;28;20086;-71
2023/06/10 06:37:50;;;;;;;3.58;1.95;;;;;;;16.16;90.49;101128.72;5045326;28;20063;-71
2023/06/10 06:40:19;;;;;;;4.63;2.13;;;;;;;16.12;91.25;101125.19;5045514;28;20056;-71
2023/06/10 06:42:47;;;;;;;4.13;1.80;;;;;;;16.10;91.44;101124.31;5049411;28;20068;-71
2023/06/10 06:45:16;;;;;;;2.10;1.60;;;;;;;16.07;91.34;101124.25;5044620;28;20071;-70
2023/06/10 06:47:44;;;;;;;3.55;2.17;;;;;;;16.06;90.86;101121.66;5045353;28;20573;-71
2023/06/10 06:50:15;;;;;;;4.45;2.47;;;;;;;16.05;90.92;101125.97;5048506;28;20056;-70
2023/06/10 06:52:43;;;;;;;3.83;2.00;;;;;;;16.03;91.71;101122.47;5045973;28;20060;-71
2023/06/10 06:55:14;;;;;;;3.47;1.77;;;;;;;16.00;92.20;101127.66;5052660;28;20048;-71
2023/06/10 06:57:43;;;;;;;2.72;1.80;;;;;;;15.99;92.21;101122.41;5045099;28;20041;-71
2023/06/10 07:00:12;;;;;;;2.97;2.25;;;;;;;15.97;92.95;101127.63;5051436;28;20052;-71
2023/06/10 07:02:41;;;;;;;2.97;1.63;;;;;;;15.95;92.45;101134.53;5045392;28;20053;-70
2023/06/10 07:05:10;;;;;;;3.75;1.80;;;;;;;15.91;93.49;101132.75;5047085;28;20535;-70
2023/06/10 07:07:40;;;;;;;11.45;2.08;;;;;;;15.89;93.27;101129.22;5042787;28;20044;-71
2023/06/10 07:10:09;;;;;;;2.53;1.52;;;;;;;15.87;93.51;101130.94;5045241;28;20506;-70
2023/06/10 07:12:38;;;;;;;3.28;1.88;;;;;;;15.86;94.68;101129.19;5045503;28;20552;-71
2023/06/10 07:15:07;;;;;;;3.30;1.90;;;;;;;15.85;94.88;101124.81;5046628;28;20045;-70
2023/06/10 07:17:36;;;;;;;3.17;1.85;;;;;;;15.83;96.59;101119.59;5046615;28;20052;-71
2023/06/10 07:20:05;;;;;;;3.42;1.52;;;;;;;15.82;95.85;101119.56;5042968;28;20078;-71
2023/06/10 07:22:34;;;;;;;2.72;1.90;;;;;;;15.80;96.31;101122.16;5044747;28;20136;-70
2023/06/10 07:25:04;;;;;;;4.20;1.92;;;;;;;15.78;95.45;101123.88;5048131;28;20049;-70
2023/06/10 07:27:33;;;;;;;4.40;1.55;;;;;;;15.74;96.09;101119.47;5048557;28;20052;-71
2023/06/10 07:30:01;;;;;;;6.43;1.73;;;;;;;15.68;97.17;101120.22;5043231;28;20041;-71
2023/06/10 07:32:33;;;;;;;2.28;1.77;;;;;;;15.65;97.84;101119.31;5045921;28;20052;-71
2023/06/10 07:35:01;;;;;;;3.97;1.70;;;;;;;15.58;97.30;101118.34;5045113;28;20056;-70
2023/06/10 07:37:30;;;;;;;4.18;2.03;;;;;;;15.53;97.77;101122.63;5045379;28;20064;-71
2023/06/10 07:39:59;;;;;;;10.43;2.20;;;;;;;15.50;97.88;101120.81;5046805;28;20044;-71
2023/06/10 07:42:29;;;;;;;3.28;1.63;;;;;;;15.52;97.98;101120.84;5050600;28;20053;-70
2023/06/10 07:44:57;;;;;;;5.10;2.70;;;;;;;15.52;98.11;101122.59;5048406;28;20045;-70
2023/06/10 07:47:26;;;;;;;3.20;1.92;;;;;;;15.49;98.37;101124.28;5046706;28;20045;-71
2023/06/10 07:49:54;;;;;;;3.28;1.80;;;;;;;15.50;98.00;101126.03;5047635;28;20487;-71
2023/06/10 07:52:23;;;;;;;2.65;1.73;;;;;;;15.52;96.86;101131.28;5046729;28;20494;-70
2023/06/10 07:54:51;;;;;;;3.63;1.65;;;;;;;15.51;96.93;101132.16;5045619;28;20495;-70
2023/06/10 07:57:20;;;;;;;3.08;1.80;;;;;;;15.51;97.17;101132.16;5044693;28;20055;-71
2023/06/10 07:59:50;;;;;;;3.17;1.63;;;;;;;15.49;96.22;101128.63;5047749;28;20488;-70
2023/06/10 08:02:19;;;;;;;3.55;1.83;;;;;;;15.49;96.13;101126.03;5048826;28;20597;-71
2023/06/10 08:04:47;;;;;;;3.10;1.95;;;;;;;15.48;96.48;101126.88;5049089;28;20458;-70
2023/06/10 08:07:17;;;;;;;4.15;1.85;;;;;;;15.47;96.46;101127.72;5049624;28;20907;-70
2023/06/10 08:09:46;;;;;;;3.88;1.70;;;;;;;15.46;96.77;101125.97;5045028;28;20514;-70
2023/06/10 08:12:15;;;;;;;4.47;1.92;;;;;;;15.44;96.29;101125.97;5046650;28;20076;-69
2023/06/10 08:14:43;;;;;;;3.55;1.48;;;;;;;15.44;96.61;101125.97;5049025;28;20056;-70
2023/06/10 08:17:13;;;;;;;4.00;1.63;;;;;;;15.42;96.52;101129.41;5046629;28;20053;-70
2023/06/10 08:19:44;;;;;;;2.70;1.90;;;;;;;15.41;96.65;101130.22;5049458;28;20053;-71
2023/06/10 08:22:12;;;;;;;2.35;1.40;;;;;;;15.41;96.48;101125.88;5050901;28;20041;-70
2023/06/10 08:24:41;;;;;;;1.45;1.13;;;;;;;15.40;95.93;101123.28;5049685;28;20502;-70
2023/06/10 08:27:10;;;;;;;4.45;1.63;;;;;;;15.39;96.90;101122.41;5051132;28;20128;-70
2023/06/10 08:29:38;;;;;;;1.55;1.15;;;;;;;15.38;96.07;101127.59;5046495;28;20132;-70
2023/06/10 08:32:08;;;;;;;3.03;1.55;;;;;;;15.37;95.88;101133.63;5049941;28;20662;-70
2023/06/10 08:34:38;;;;;;;4.18;1.80;;;;;;;15.35;96.65;101130.16;5048903;28;20053;-70
2023/06/10 08:37:07;;;;;;;4.00;1.60;;;;;;;15.35;96.40;101122.34;5046480;28;20714;-70
2023/06/10 08:39:35;;;;;;;2.58;1.65;;;;;;;15.33;96.24;101126.66;5051621;28;20565;-70
2023/06/10 08:42:12;;;;;;;3.80;1.58;;;;;;;15.34;96.55;101128.38;5043384;28;20577;-70
2023/06/10 08:44:43;;;;;;;2.95;1.55;;;;;;;15.33;96.38;101126.66;5048861;28;20059;-70
2023/06/10 08:47:16;;;;;;;3.95;1.23;;;;;;;15.32;96.17;101135.31;5052984;28;20091;-68
2023/06/10 08:49:50;;;;;;;3.00;1.40;;;;;;;15.28;95.55;101127.44;5054373;28;20099;-70
2023/06/10 08:52:20;;;;;;;3.17;1.30;;;;;;;15.27;94.61;101136.09;5044265;28;20049;-70
2023/06/10 08:55:04;;;;;;;2.78;1.42;;;;;;;15.23;94.51;101141.25;5047934;28;20064;-70
2023/06/10 08:57:33;;;;;;;2.33;1.40;;;;;;;15.16;94.04;101150.69;5042488;28;20057;-70
2023/06/10 09:00:02;;;;;;;8.05;1.27;;;;;;;15.11;94.20;101141.03;5043510;28;20110;-70
2023/06/10 09:02:31;;;;;;;3.88;1.67;;;;;;;15.08;95.65;101147.09;5049141;28;20058;-70
2023/06/10 09:05:02;;;;;;;3.58;1.88;;;;;;;15.09;95.58;101146.22;5047602;28;20037;-70
2023/06/10 09:07:34;;;;;;;4.65;2.22;;;;;;;15.07;96.72;101143.63;5046337;28;20064;-70
2023/06/10 09:10:03;;;;;;;;;;;;;;;15.05;96.50;101142.69;5047361;28;20071;-70
2023/06/10 09:12:32;;;;;;;3.67;1.75;;;;;;;15.06;96.61;101140.97;5046203;28;19932;-70
2023/06/10 09:15:01;;;;;;;2.15;1.38;;;;;;;15.06;96.50;101143.56;5046696;28;20438;-70
2023/06/10 09:17:29;;;;;;;4.57;1.73;;;;;;;15.04;96.49;101146.13;5043311;28;20115;-70
2023/06/10 09:19:58;;;;;;;1.85;1.13;;;;;;;15.08;95.61;101147.97;5047717;28;20576;-70
2023/06/10 09:22:28;;;;;;;2.90;1.75;;;;;;;15.08;94.95;101147.09;5046926;28;20053;-70
2023/06/10 09:25:05;;;;;;;2.90;1.42;;;;;;;15.09;95.40;101143.63;5045995;28;20095;-70
2023/06/10 09:27:34;;;;;;;2.10;1.50;;;;;;;15.08;94.22;101147.09;5047839;28;20150;-69
2023/06/10 09:30:02;;;;;;;3.75;1.80;;;;;;;15.10;94.29;101148.00;5048857;28;20025;-70
2023/06/10 09:32:31;;;;;;;3.15;1.20;;;;;;;15.08;93.66;101147.97;5045259;28;20498;-70
2023/06/10 09:35:00;;;;;;;1.80;1.27;;;;;;;15.08;94.13;101145.34;5048743;28;20384;-70
2023/06/10 09:37:30;;;;;;;2.17;1.40;;;;;;;15.09;93.70;101141.00;5047484;28;20057;-70
2023/06/10 09:40:06;;;;;;;2.42;1.23;;;;;;;15.08;93.94;101141.88;5042879;28;20049;-70
2023/06/10 09:42:36;;;;;;;2.63;1.42;;;;;;;15.07;94.14;101143.63;5041077;28;20053;-71
2023/06/10 09:45:05;;;;;;;3.00;1.25;;;;;;;15.06;95.30;101151.41;5045167;28;20123;-70
2023/06/10 09:47:34;;;;;;;3.70;1.60;;;;;;;15.06;94.98;101149.66;5045206;28;20080;-71
2023/06/10 09:50:03;;;;;;;2.28;1.35;;;;;;;15.05;94.83;101144.44;5046438;28;20045;-71
2023/06/10 09:52:33;;;;;;;2.50;1.33;;;;;;;15.04;94.19;101146.13;5046074;28;20731;-70
2023/06/10 09:55:03;;;;;;;3.53;1.58;;;;;;;15.01;93.54;101142.63;5043758;28;20037;-70
2023/06/10 09:57:34;;;;;;;4.38;1.75;;;;;;;15.02;93.88;101146.97;5045899;28;20077;-71
2023/06/10 10:00:07;;;;;;;6.60;1.55;;;;;;;15.01;94.22;101140.00;5043472;28;20059;-70
2023/06/10 10:02:47;;;;;;;2.88;1.30;;;;;;;15.00;93.68;101144.34;5043435;28;20048;-70
2023/06/10 10:05:16;;;;;;;2.70;1.20;;;;;;;14.98;93.56;101143.44;5044178;28;20704;-70
2023/06/10 10:07:47;;;;;;;6.65;1.45;;;;;;;14.98;94.21;101145.16;5044090;28;20049;-70
2023/06/10 10:10:16;;;;;;;2.35;1.58;;;;;;;14.96;94.18;101139.94;5044250;28;20064;-70
2023/06/10 10:12:47;;;;;;;3.58;1.75;;;;;;;14.96;92.98;101141.66;5045768;28;20053;-70
2023/06/10 10:15:18;;;;;;;4.35;1.80;;;;;;;14.90;94.12;101138.94;5047803;28;20049;-70
2023/06/10 10:17:55;;;;;;;3.17;1.55;;;;;;;14.93;94.02;101147.69;5048044;28;20491;-70
2023/06/10 10:20:28;;;;;;;2.45;1.48;;;;;;;14.91;94.34;101144.16;5044773;28;20147;-70
2023/06/10 10:23:00;;;;;;;2.80;1.25;;;;;;;14.88;94.09;101145.00;5046928;28;20104;-71
2023/06/10 10:25:34;;;;;;;2.60;1.87;;;;;;;14.88;93.57;101149.31;5042622;28;20585;-70
2023/06/10 10:28:09;;;;;;;2.58;1.27;;;;;;;14.86;93.47;101149.28;5040633;28;20517;-68
2023/06/10 10:30:42;;;;;;;2.45;1.25;;;;;;;14.83;93.08;101144.03;5042509;28;20531;-69
2023/06/10 10:33:19;;;;;;;4.47;1.70;;;;;;;14.80;92.78;101141.38;5042996;28;20102;-69
2023/06/10 10:35:48;;;;;;;1.60;1.15;;;;;;;14.79;92.87;101136.13;5040419;28;20136;-69
2023/06/10 10:38:18;;;;;;;2.28;1.20;;;;;;;14.77;92.25;101140.44;5043983;28;20503;-70
2023/06/10 10:40:48;;;;;;;2.55;1.38;;;;;;;14.75;92.67;101147.34;5044782;28;20072;-69
2023/06/10 10:43:18;;;;;;;2.45;1.40;;;;;;;14.66;91.34;101132.44;5041929;28;20053;-69
2023/06/10 10:45:48;;;;;;;3.72;1.20;;;;;;;14.70;90.87;101144.66;5045865;28;20067;-69
2023/06/10 10:48:17;;;;;;;1.92;1.33;;;;;;;14.68;91.89;101138.53;5043305;28;20057;-69
2023/06/10 10:50:57;;;;;;;1.90;1.00;;;;;;;14.65;91.91;101135.88;5039398;28;20050;-69
2023/06/10 10:53:27;;;;;;;1.98;1.25;;;;;;;14.61;91.69;101139.28;5043392;28;20052;-68
2023/06/10 10:56:07;;;;;;;1.73;1.10;;;;;;;14.58;91.29;101139.22;5041046;28;20056;-70
2023/06/10 10:58:36;;;;;;;2.97;1.30;;;;;;;14.57;91.23;101134.88;5042556;28;20080;-69
2023/06/10 11:01:14;;;;;;;2.80;0.95;;;;;;;14.56;91.31;101133.97;5044381;28;20053;-69
2023/06/10 11:03:47;;;;;;;3.25;1.10;;;;;;;14.53;92.50;101136.50;5042647;28;20045;-69
2023/06/10 11:06:16;;;;;;;3.15;1.50;;;;;;;14.50;92.86;101131.25;5045766;28;20090;-69
2023/06/10 11:08:51;;;;;;;3.42;1.80;;;;;;;14.49;93.08;101133.81;5049106;28;20037;-68
2023/06/10 11:11:22;;;;;;;2.90;2.33;;;;;;;14.44;93.27;101128.50;5049209;28;20482;-70
2023/06/10 11:14:28;;;;;;;3.50;1.73;;;;;;;14.40;93.27;101124.94;5046713;28;20737;-69
2023/06/10 11:16:59;;;;;;;2.15;1.20;;;;;;;14.36;92.60;101133.56;5011052;28;20077;-69
2023/06/10 11:19:38;;;;;;;1.92;1.48;;;;;;;14.32;93.08;101136.97;5049568;28;20127;-68
2023/06/10 11:22:09;;;;;;;4.47;1.42;;;;;;;14.30;94.02;101132.56;5054133;28;20040;-69
2023/06/10 11:24:39;;;;;;;4.38;1.23;;;;;;;14.25;94.37;101135.94;5048157;28;20088;-69
2023/06/10 11:27:33;;;;;;;2.85;1.30;;;;;;;14.23;94.58;101131.56;5044779;28;20060;-69
2023/06/10 11:30:21;;;;;;;2.05;1.50;;;;;;;14.20;95.13;101126.28;5041387;28;20041;-69
2023/06/10 11:32:54;;;;;;;2.58;1.60;;;;;;;14.19;95.09;101127.13;5041970;28;20494;-69
2023/06/10 11:35:27;;;;;;;3.17;1.48;;;;;;;14.16;95.52;101129.69;5045424;28;20746;-70
2023/06/10 11:37:56;;;;;;;3.60;1.38;;;;;;;14.14;95.61;101128.78;5045418;28;20053;-69
2023/06/10 11:40:30;;;;;;;3.50;1.42;;;;;;;14.13;94.85;101132.19;5044407;28;20060;-70